sensor_id;sensor_type;location;lat;lon;timestamp;P1;durP1;ratioP1;P2;durP2;ratioP2
25331;SDS011;13284;52.748;13.452;2023-09-19T00:01:38;4.57;;;2.40;;
25331;SDS011;13284;52.748;13.452;2023-09-19T00:04:09;2.90;;;2.30;;
25331;SDS011;13284;52.748;13.452;2023-09-19T00:06:34;3.80;;;2.13;;
25331;SDS011;13284;52.748;13.452;2023-09-19T00:09:01;4.53;;;2.27;;
25331;SDS011;13284;52.748;13.452;2023-09-19T00:11:27;3.23;;;2.27;;
25331;SDS011;13284;52.748;13.452;2023-09-19T00:13:54;4.40;;;2.63;;
25331;SDS011;13284;52.748;13.452;2023-09-19T00:16:19;2.50;;;1.83;;
25331;SDS011;13284;52.748;13.452;2023-09-19T00:18:45;5.57;;;2.10;;
25331;SDS011;13284;52.748;13.452;2023-09-19T00:21:11;3.33;;;2.37;;
25331;SDS011;13284;52.748;13.452;2023-09-19T00:23:37;7.73;;;2.20;;
25331;SDS011;13284;52.748;13.452;2023-09-19T00:26:05;5.30;;;2.83;;
25331;SDS011;13284;52.748;13.452;2023-09-19T00:28:31;3.20;;;2.63;;
25331;SDS011;13284;52.748;13.452;2023-09-19T00:30:57;2.90;;;2.53;;
25331;SDS011;13284;52.748;13.452;2023-09-19T00:33:26;5.23;;;2.60;;
25331;SDS011;13284;52.748;13.452;2023-09-19T00:35:54;3.57;;;2.50;;
25331;SDS011;13284;52.748;13.452;2023-09-19T00:38:21;3.13;;;2.87;;
25331;SDS011;13284;52.748;13.452;2023-09-19T00:40:52;3.73;;;2.30;;
25331;SDS011;13284;52.748;13.452;2023-09-19T00:43:18;2.30;;;2.10;;
25331;SDS011;13284;52.748;13.452;2023-09-19T00:45:45;3.30;;;2.33;;
25331;SDS011;13284;52.748;13.452;2023-09-19T00:48:16;4.40;;;2.50;;
25331;SDS011;13284;52.748;13.452;2023-09-19T00:50:42;3.40;;;2.17;;
25331;SDS011;13284;52.748;13.452;2023-09-19T00:53:09;6.17;;;2.33;;
25331;SDS011;13284;52.748;13.452;2023-09-19T00:55:38;2.87;;;2.30;;
25331;SDS011;13284;52.748;13.452;2023-09-19T00:58:04;3.10;;;2.20;;
25331;SDS011;13284;52.748;13.452;2023-09-19T01:00:33;2.63;;;1.97;;
25331;SDS011;13284;52.748;13.452;2023-09-19T01:02:59;3.90;;;2.10;;
25331;SDS011;13284;52.748;13.452;2023-09-19T01:05:28;3.97;;;2.40;;
25331;SDS011;13284;52.748;13.452;2023-09-19T01:07:55;2.60;;;2.00;;
25331;SDS011;13284;52.748;13.452;2023-09-19T01:10:21;2.97;;;2.30;;
25331;SDS011;13284;52.748;13.452;2023-09-19T01:16:01;3.73;;;2.10;;
25331;SDS011;13284;52.748;13.452;2023-09-19T01:21:30;3.73;;;2.47;;
25331;SDS011;13284;52.748;13.452;2023-09-19T01:25:13;5.13;;;1.90;;
25331;SDS011;13284;52.748;13.452;2023-09-19T01:29:48;5.53;;;2.33;;
25331;SDS011;13284;52.748;13.452;2023-09-19T01:32:16;4.00;;;2.20;;
25331;SDS011;13284;52.748;13.452;2023-09-19T01:34:55;2.13;;;1.93;;
25331;SDS011;13284;52.748;13.452;2023-09-19T01:37:23;3.33;;;1.80;;
25331;SDS011;13284;52.748;13.452;2023-09-19T01:39:58;3.20;;;2.13;;
25331;SDS011;13284;52.748;13.452;2023-09-19T01:51:10;2.30;;;1.80;;
25331;SDS011;13284;52.748;13.452;2023-09-19T01:53:55;3.83;;;2.47;;
25331;SDS011;13284;52.748;13.452;2023-09-19T01:56:29;2.63;;;1.90;;
25331;SDS011;13284;52.748;13.452;2023-09-19T01:59:02;3.40;;;2.33;;
25331;SDS011;13284;52.748;13.452;2023-09-19T02:01:32;3.30;;;2.67;;
25331;SDS011;13284;52.748;13.452;2023-09-19T02:03:59;2.90;;;2.10;;
25331;SDS011;13284;52.748;13.452;2023-09-19T02:06:25;2.53;;;2.00;;
25331;SDS011;13284;52.748;13.452;2023-09-19T02:08:51;1.97;;;1.87;;
25331;SDS011;13284;52.748;13.452;2023-09-19T02:11:18;2.80;;;2.30;;
25331;SDS011;13284;52.748;13.452;2023-09-19T02:13:44;2.27;;;2.00;;
25331;SDS011;13284;52.748;13.452;2023-09-19T02:16:10;3.53;;;2.07;;
25331;SDS011;13284;52.748;13.452;2023-09-19T02:18:36;3.87;;;2.63;;
25331;SDS011;13284;52.748;13.452;2023-09-19T02:21:01;3.73;;;1.80;;
25331;SDS011;13284;52.748;13.452;2023-09-19T02:23:29;4.63;;;2.10;;
25331;SDS011;13284;52.748;13.452;2023-09-19T02:25:55;2.93;;;2.30;;
25331;SDS011;13284;52.748;13.452;2023-09-19T02:28:26;4.53;;;2.10;;
25331;SDS011;13284;52.748;13.452;2023-09-19T02:31:01;4.20;;;2.40;;
25331;SDS011;13284;52.748;13.452;2023-09-19T02:33:26;2.67;;;2.03;;
25331;SDS011;13284;52.748;13.452;2023-09-19T02:35:55;3.57;;;2.23;;
25331;SDS011;13284;52.748;13.452;2023-09-19T02:38:22;3.03;;;2.80;;
25331;SDS011;13284;52.748;13.452;2023-09-19T02:40:49;3.33;;;2.13;;
25331;SDS011;13284;52.748;13.452;2023-09-19T02:43:15;3.03;;;2.03;;
25331;SDS011;13284;52.748;13.452;2023-09-19T02:45:42;4.10;;;2.17;;
25331;SDS011;13284;52.748;13.452;2023-09-19T02:48:07;4.40;;;2.70;;
25331;SDS011;13284;52.748;13.452;2023-09-19T02:50:33;4.63;;;2.40;;
25331;SDS011;13284;52.748;13.452;2023-09-19T02:52:59;2.73;;;2.10;;
25331;SDS011;13284;52.748;13.452;2023-09-19T02:55:24;4.63;;;2.00;;
25331;SDS011;13284;52.748;13.452;2023-09-19T02:57:51;4.23;;;2.07;;
25331;SDS011;13284;52.748;13.452;2023-09-19T03:00:18;3.53;;;2.57;;
25331;SDS011;13284;52.748;13.452;2023-09-19T03:02:46;3.80;;;2.57;;
25331;SDS011;13284;52.748;13.452;2023-09-19T03:05:15;2.57;;;2.30;;
25331;SDS011;13284;52.748;13.452;2023-09-19T03:07:40;4.83;;;2.13;;
25331;SDS011;13284;52.748;13.452;2023-09-19T03:10:08;3.00;;;2.60;;
25331;SDS011;13284;52.748;13.452;2023-09-19T03:12:34;2.33;;;2.13;;
25331;SDS011;13284;52.748;13.452;2023-09-19T03:15:00;2.50;;;2.07;;
25331;SDS011;13284;52.748;13.452;2023-09-19T03:17:26;5.53;;;2.50;;
25331;SDS011;13284;52.748;13.452;2023-09-19T03:19:53;3.60;;;2.07;;
25331;SDS011;13284;52.748;13.452;2023-09-19T03:22:19;3.87;;;2.10;;
25331;SDS011;13284;52.748;13.452;2023-09-19T03:24:44;3.13;;;2.00;;
25331;SDS011;13284;52.748;13.452;2023-09-19T03:27:11;2.63;;;2.20;;
25331;SDS011;13284;52.748;13.452;2023-09-19T03:29:39;4.70;;;2.87;;
25331;SDS011;13284;52.748;13.452;2023-09-19T03:32:05;3.37;;;2.20;;
25331;SDS011;13284;52.748;13.452;2023-09-19T03:34:30;3.00;;;2.60;;
25331;SDS011;13284;52.748;13.452;2023-09-19T03:36:56;2.90;;;2.40;;
25331;SDS011;13284;52.748;13.452;2023-09-19T03:39:21;3.40;;;2.30;;
25331;SDS011;13284;52.748;13.452;2023-09-19T03:41:47;5.13;;;2.47;;
25331;SDS011;13284;52.748;13.452;2023-09-19T03:44:13;3.37;;;2.30;;
25331;SDS011;13284;52.748;13.452;2023-09-19T03:46:38;2.20;;;1.60;;
25331;SDS011;13284;52.748;13.452;2023-09-19T03:49:04;3.63;;;2.13;;
25331;SDS011;13284;52.748;13.452;2023-09-19T03:51:29;3.20;;;1.70;;
25331;SDS011;13284;52.748;13.452;2023-09-19T03:53:55;4.60;;;2.60;;
25331;SDS011;13284;52.748;13.452;2023-09-19T03:56:21;4.30;;;2.23;;
25331;SDS011;13284;52.748;13.452;2023-09-19T03:58:46;4.97;;;2.43;;
25331;SDS011;13284;52.748;13.452;2023-09-19T04:01:12;1.90;;;1.80;;
25331;SDS011;13284;52.748;13.452;2023-09-19T04:03:38;4.67;;;2.40;;
25331;SDS011;13284;52.748;13.452;2023-09-19T04:06:13;2.30;;;2.10;;
25331;SDS011;13284;52.748;13.452;2023-09-19T04:08:39;3.47;;;1.60;;
25331;SDS011;13284;52.748;13.452;2023-09-19T04:11:05;4.70;;;1.90;;
25331;SDS011;13284;52.748;13.452;2023-09-19T04:13:31;3.40;;;1.63;;
25331;SDS011;13284;52.748;13.452;2023-09-19T04:15:57;2.20;;;2.00;;
25331;SDS011;13284;52.748;13.452;2023-09-19T04:18:22;1.83;;;1.73;;
25331;SDS011;13284;52.748;13.452;2023-09-19T04:20:50;2.83;;;1.43;;
25331;SDS011;13284;52.748;13.452;2023-09-19T04:23:16;2.47;;;1.90;;
25331;SDS011;13284;52.748;13.452;2023-09-19T04:25:42;3.80;;;2.47;;
25331;SDS011;13284;52.748;13.452;2023-09-19T04:28:08;2.23;;;1.90;;
25331;SDS011;13284;52.748;13.452;2023-09-19T04:30:36;3.90;;;1.93;;
25331;SDS011;13284;52.748;13.452;2023-09-19T04:33:02;2.00;;;1.90;;
25331;SDS011;13284;52.748;13.452;2023-09-19T04:35:27;2.17;;;2.00;;
25331;SDS011;13284;52.748;13.452;2023-09-19T04:37:56;2.03;;;1.93;;
25331;SDS011;13284;52.748;13.452;2023-09-19T04:40:22;1.87;;;1.77;;
25331;SDS011;13284;52.748;13.452;2023-09-19T04:42:55;3.07;;;1.70;;
25331;SDS011;13284;52.748;13.452;2023-09-19T04:45:24;2.10;;;1.90;;
25331;SDS011;13284;52.748;13.452;2023-09-19T04:47:51;3.13;;;2.30;;
25331;SDS011;13284;52.748;13.452;2023-09-19T04:50:17;3.60;;;1.90;;
25331;SDS011;13284;52.748;13.452;2023-09-19T04:52:43;4.50;;;2.60;;
25331;SDS011;13284;52.748;13.452;2023-09-19T04:55:10;2.17;;;1.97;;
25331;SDS011;13284;52.748;13.452;2023-09-19T04:57:48;2.30;;;1.90;;
25331;SDS011;13284;52.748;13.452;2023-09-19T05:00:16;3.90;;;2.20;;
25331;SDS011;13284;52.748;13.452;2023-09-19T05:02:44;6.33;;;2.53;;
25331;SDS011;13284;52.748;13.452;2023-09-19T05:05:11;2.17;;;2.00;;
25331;SDS011;13284;52.748;13.452;2023-09-19T05:07:37;3.33;;;2.57;;
25331;SDS011;13284;52.748;13.452;2023-09-19T05:10:04;2.20;;;2.00;;
25331;SDS011;13284;52.748;13.452;2023-09-19T05:12:31;2.20;;;2.00;;
25331;SDS011;13284;52.748;13.452;2023-09-19T05:14:59;5.00;;;2.30;;
25331;SDS011;13284;52.748;13.452;2023-09-19T05:17:24;2.87;;;2.30;;
25331;SDS011;13284;52.748;13.452;2023-09-19T05:19:50;1.97;;;1.87;;
25331;SDS011;13284;52.748;13.452;2023-09-19T05:22:15;2.77;;;2.57;;
25331;SDS011;13284;52.748;13.452;2023-09-19T05:24:44;4.17;;;2.67;;
25331;SDS011;13284;52.748;13.452;2023-09-19T05:27:12;5.07;;;2.90;;
25331;SDS011;13284;52.748;13.452;2023-09-19T05:29:41;3.33;;;2.63;;
25331;SDS011;13284;52.748;13.452;2023-09-19T05:32:10;3.00;;;2.43;;
25331;SDS011;13284;52.748;13.452;2023-09-19T05:34:36;2.80;;;2.40;;
25331;SDS011;13284;52.748;13.452;2023-09-19T05:37:02;5.87;;;2.70;;
25331;SDS011;13284;52.748;13.452;2023-09-19T05:39:27;3.30;;;2.40;;
25331;SDS011;13284;52.748;13.452;2023-09-19T05:41:53;3.80;;;1.90;;
25331;SDS011;13284;52.748;13.452;2023-09-19T05:44:18;3.00;;;2.60;;
25331;SDS011;13284;52.748;13.452;2023-09-19T05:46:44;4.50;;;2.97;;
25331;SDS011;13284;52.748;13.452;2023-09-19T05:49:13;3.50;;;3.13;;
25331;SDS011;13284;52.748;13.452;2023-09-19T05:51:39;3.20;;;2.63;;
25331;SDS011;13284;52.748;13.452;2023-09-19T05:54:13;3.47;;;3.00;;
25331;SDS011;13284;52.748;13.452;2023-09-19T05:56:42;3.50;;;3.10;;
25331;SDS011;13284;52.748;13.452;2023-09-19T05:59:07;3.60;;;2.87;;
25331;SDS011;13284;52.748;13.452;2023-09-19T06:01:33;4.97;;;3.10;;
25331;SDS011;13284;52.748;13.452;2023-09-19T06:04:04;5.30;;;2.40;;
25331;SDS011;13284;52.748;13.452;2023-09-19T06:06:30;2.73;;;2.20;;
25331;SDS011;13284;52.748;13.452;2023-09-19T06:08:55;3.80;;;2.40;;
25331;SDS011;13284;52.748;13.452;2023-09-19T06:11:22;4.27;;;2.57;;
25331;SDS011;13284;52.748;13.452;2023-09-19T06:13:51;4.27;;;2.30;;
25331;SDS011;13284;52.748;13.452;2023-09-19T06:16:18;4.77;;;3.17;;
25331;SDS011;13284;52.748;13.452;2023-09-19T06:18:44;3.37;;;2.77;;
25331;SDS011;13284;52.748;13.452;2023-09-19T06:21:10;3.93;;;2.63;;
25331;SDS011;13284;52.748;13.452;2023-09-19T06:23:36;5.23;;;2.60;;
25331;SDS011;13284;52.748;13.452;2023-09-19T06:26:01;3.33;;;2.87;;
25331;SDS011;13284;52.748;13.452;2023-09-19T06:28:28;2.70;;;2.43;;
25331;SDS011;13284;52.748;13.452;2023-09-19T06:30:54;2.50;;;2.40;;
25331;SDS011;13284;52.748;13.452;2023-09-19T06:33:20;3.93;;;2.67;;
25331;SDS011;13284;52.748;13.452;2023-09-19T06:35:52;2.60;;;2.33;;
25331;SDS011;13284;52.748;13.452;2023-09-19T06:38:24;4.50;;;2.40;;
25331;SDS011;13284;52.748;13.452;2023-09-19T06:40:51;3.07;;;2.33;;
25331;SDS011;13284;52.748;13.452;2023-09-19T06:43:18;2.87;;;2.60;;
25331;SDS011;13284;52.748;13.452;2023-09-19T06:45:44;3.80;;;2.90;;
25331;SDS011;13284;52.748;13.452;2023-09-19T06:48:10;3.70;;;2.47;;
25331;SDS011;13284;52.748;13.452;2023-09-19T06:50:40;2.87;;;2.27;;
25331;SDS011;13284;52.748;13.452;2023-09-19T06:53:15;3.00;;;2.30;;
25331;SDS011;13284;52.748;13.452;2023-09-19T06:55:42;3.00;;;2.60;;
25331;SDS011;13284;52.748;13.452;2023-09-19T06:58:08;3.13;;;2.30;;
25331;SDS011;13284;52.748;13.452;2023-09-19T07:00:35;5.47;;;3.03;;
25331;SDS011;13284;52.748;13.452;2023-09-19T07:03:03;3.87;;;2.80;;
25331;SDS011;13284;52.748;13.452;2023-09-19T07:05:33;2.73;;;2.53;;
25331;SDS011;13284;52.748;13.452;2023-09-19T07:08:02;3.83;;;3.03;;
25331;SDS011;13284;52.748;13.452;2023-09-19T07:10:28;2.77;;;2.57;;
25331;SDS011;13284;52.748;13.452;2023-09-19T07:12:55;3.50;;;2.90;;
25331;SDS011;13284;52.748;13.452;2023-09-19T07:15:20;6.13;;;2.80;;
25331;SDS011;13284;52.748;13.452;2023-09-19T07:17:50;3.37;;;2.70;;
25331;SDS011;13284;52.748;13.452;2023-09-19T07:20:17;2.93;;;2.60;;
25331;SDS011;13284;52.748;13.452;2023-09-19T07:22:43;2.83;;;2.60;;
25331;SDS011;13284;52.748;13.452;2023-09-19T07:25:09;3.33;;;3.00;;
25331;SDS011;13284;52.748;13.452;2023-09-19T07:27:35;4.30;;;2.53;;
25331;SDS011;13284;52.748;13.452;2023-09-19T07:30:00;2.83;;;2.47;;
25331;SDS011;13284;52.748;13.452;2023-09-19T07:32:26;3.53;;;3.23;;
25331;SDS011;13284;52.748;13.452;2023-09-19T07:34:51;5.00;;;2.70;;
25331;SDS011;13284;52.748;13.452;2023-09-19T07:37:17;2.60;;;2.40;;
25331;SDS011;13284;52.748;13.452;2023-09-19T07:39:42;3.30;;;2.60;;
25331;SDS011;13284;52.748;13.452;2023-09-19T07:42:09;4.10;;;2.97;;
25331;SDS011;13284;52.748;13.452;2023-09-19T07:44:36;3.73;;;2.60;;
25331;SDS011;13284;52.748;13.452;2023-09-19T07:47:02;4.67;;;3.50;;
25331;SDS011;13284;52.748;13.452;2023-09-19T07:49:28;5.80;;;3.00;;
25331;SDS011;13284;52.748;13.452;2023-09-19T07:51:54;3.03;;;2.37;;
25331;SDS011;13284;52.748;13.452;2023-09-19T07:54:22;2.83;;;2.50;;
25331;SDS011;13284;52.748;13.452;2023-09-19T07:56:47;2.50;;;2.07;;
25331;SDS011;13284;52.748;13.452;2023-09-19T07:59:13;3.70;;;2.60;;
25331;SDS011;13284;52.748;13.452;2023-09-19T08:01:38;4.77;;;2.43;;
25331;SDS011;13284;52.748;13.452;2023-09-19T08:04:08;3.67;;;2.77;;
25331;SDS011;13284;52.748;13.452;2023-09-19T08:06:36;2.20;;;1.63;;
25331;SDS011;13284;52.748;13.452;2023-09-19T08:09:04;3.13;;;2.43;;
25331;SDS011;13284;52.748;13.452;2023-09-19T08:11:33;2.97;;;2.17;;
25331;SDS011;13284;52.748;13.452;2023-09-19T08:13:58;4.60;;;2.53;;
25331;SDS011;13284;52.748;13.452;2023-09-19T08:16:31;2.70;;;2.23;;
25331;SDS011;13284;52.748;13.452;2023-09-19T08:18:57;3.70;;;2.20;;
25331;SDS011;13284;52.748;13.452;2023-09-19T08:21:22;3.67;;;2.37;;
25331;SDS011;13284;52.748;13.452;2023-09-19T08:23:49;2.93;;;1.97;;
25331;SDS011;13284;52.748;13.452;2023-09-19T08:26:15;6.33;;;2.87;;
25331;SDS011;13284;52.748;13.452;2023-09-19T08:28:40;2.40;;;2.20;;
25331;SDS011;13284;52.748;13.452;2023-09-19T08:31:07;3.60;;;2.70;;
25331;SDS011;13284;52.748;13.452;2023-09-19T08:33:33;2.40;;;2.20;;
25331;SDS011;13284;52.748;13.452;2023-09-19T08:36:00;5.00;;;2.60;;
25331;SDS011;13284;52.748;13.452;2023-09-19T08:38:26;4.73;;;2.63;;
25331;SDS011;13284;52.748;13.452;2023-09-19T08:40:56;3.30;;;2.50;;
25331;SDS011;13284;52.748;13.452;2023-09-19T08:43:23;3.30;;;2.40;;
25331;SDS011;13284;52.748;13.452;2023-09-19T08:46:03;2.40;;;2.20;;
25331;SDS011;13284;52.748;13.452;2023-09-19T08:48:45;6.13;;;3.10;;
25331;SDS011;13284;52.748;13.452;2023-09-19T08:51:16;2.90;;;2.43;;
25331;SDS011;13284;52.748;13.452;2023-09-19T08:53:56;3.20;;;2.63;;
25331;SDS011;13284;52.748;13.452;2023-09-19T08:56:29;5.63;;;2.67;;
25331;SDS011;13284;52.748;13.452;2023-09-19T08:58:56;5.17;;;2.80;;
25331;SDS011;13284;52.748;13.452;2023-09-19T09:01:34;4.67;;;2.87;;
25331;SDS011;13284;52.748;13.452;2023-09-19T09:04:01;4.00;;;2.93;;
25331;SDS011;13284;52.748;13.452;2023-09-19T09:06:27;3.60;;;2.93;;
25331;SDS011;13284;52.748;13.452;2023-09-19T09:08:53;2.13;;;1.93;;
25331;SDS011;13284;52.748;13.452;2023-09-19T09:11:19;4.93;;;2.83;;
25331;SDS011;13284;52.748;13.452;2023-09-19T09:13:46;3.13;;;2.73;;
25331;SDS011;13284;52.748;13.452;2023-09-19T09:16:12;5.03;;;3.27;;
25331;SDS011;13284;52.748;13.452;2023-09-19T09:18:39;4.00;;;2.40;;
25331;SDS011;13284;52.748;13.452;2023-09-19T09:21:05;2.83;;;2.63;;
25331;SDS011;13284;52.748;13.452;2023-09-19T09:23:31;9.20;;;3.03;;
25331;SDS011;13284;52.748;13.452;2023-09-19T09:25:58;4.10;;;2.90;;
25331;SDS011;13284;52.748;13.452;2023-09-19T09:28:28;3.03;;;2.83;;
25331;SDS011;13284;52.748;13.452;2023-09-19T09:31:04;11.20;;;2.93;;
25331;SDS011;13284;52.748;13.452;2023-09-19T09:33:34;2.53;;;2.30;;
25331;SDS011;13284;52.748;13.452;2023-09-19T09:36:01;4.30;;;2.83;;
25331;SDS011;13284;52.748;13.452;2023-09-19T09:41:10;2.80;;;2.50;;
25331;SDS011;13284;52.748;13.452;2023-09-19T09:43:40;5.23;;;2.73;;
25331;SDS011;13284;52.748;13.452;2023-09-19T09:46:12;4.30;;;2.37;;
25331;SDS011;13284;52.748;13.452;2023-09-19T09:48:55;2.27;;;2.07;;
25331;SDS011;13284;52.748;13.452;2023-09-19T09:51:57;3.33;;;2.60;;
25331;SDS011;13284;52.748;13.452;2023-09-19T09:54:59;3.17;;;2.70;;
25331;SDS011;13284;52.748;13.452;2023-09-19T09:57:30;4.03;;;3.53;;
25331;SDS011;13284;52.748;13.452;2023-09-19T09:59:56;2.90;;;2.60;;
25331;SDS011;13284;52.748;13.452;2023-09-19T10:02:38;3.53;;;2.63;;
25331;SDS011;13284;52.748;13.452;2023-09-19T10:05:24;6.97;;;2.50;;
25331;SDS011;13284;52.748;13.452;2023-09-19T10:07:52;3.83;;;2.60;;
25331;SDS011;13284;52.748;13.452;2023-09-19T10:10:38;3.27;;;2.57;;
25331;SDS011;13284;52.748;13.452;2023-09-19T10:13:05;4.33;;;2.80;;
25331;SDS011;13284;52.748;13.452;2023-09-19T10:15:33;2.70;;;2.33;;
25331;SDS011;13284;52.748;13.452;2023-09-19T10:18:01;3.03;;;2.83;;
25331;SDS011;13284;52.748;13.452;2023-09-19T10:20:30;3.57;;;3.27;;
25331;SDS011;13284;52.748;13.452;2023-09-19T10:23:00;5.97;;;4.33;;
25331;SDS011;13284;52.748;13.452;2023-09-19T10:25:34;3.20;;;2.50;;
25331;SDS011;13284;52.748;13.452;2023-09-19T10:28:02;2.80;;;2.30;;
25331;SDS011;13284;52.748;13.452;2023-09-19T10:30:31;4.67;;;2.40;;
25331;SDS011;13284;52.748;13.452;2023-09-19T10:33:03;4.60;;;2.60;;
25331;SDS011;13284;52.748;13.452;2023-09-19T10:35:30;4.40;;;2.73;;
25331;SDS011;13284;52.748;13.452;2023-09-19T10:38:01;2.90;;;2.33;;
25331;SDS011;13284;52.748;13.452;2023-09-19T10:40:28;3.73;;;2.53;;
25331;SDS011;13284;52.748;13.452;2023-09-19T10:43:05;4.83;;;3.20;;
25331;SDS011;13284;52.748;13.452;2023-09-19T10:45:31;3.63;;;2.63;;
25331;SDS011;13284;52.748;13.452;2023-09-19T10:47:59;4.50;;;2.73;;
25331;SDS011;13284;52.748;13.452;2023-09-19T10:50:25;5.53;;;3.10;;
25331;SDS011;13284;52.748;13.452;2023-09-19T10:52:56;3.17;;;2.40;;
25331;SDS011;13284;52.748;13.452;2023-09-19T10:55:35;5.00;;;2.80;;
25331;SDS011;13284;52.748;13.452;2023-09-19T10:58:01;4.70;;;2.33;;
25331;SDS011;13284;52.748;13.452;2023-09-19T11:00:54;4.10;;;3.20;;
25331;SDS011;13284;52.748;13.452;2023-09-19T11:03:32;3.60;;;2.70;;
25331;SDS011;13284;52.748;13.452;2023-09-19T11:06:02;7.07;;;2.70;;
25331;SDS011;13284;52.748;13.452;2023-09-19T11:11:39;3.73;;;2.90;;
25331;SDS011;13284;52.748;13.452;2023-09-19T11:23:09;6.90;;;2.70;;
25331;SDS011;13284;52.748;13.452;2023-09-19T11:30:40;4.43;;;2.53;;
25331;SDS011;13284;52.748;13.452;2023-09-19T11:33:23;3.03;;;2.50;;
25331;SDS011;13284;52.748;13.452;2023-09-19T11:36:03;4.43;;;2.30;;
25331;SDS011;13284;52.748;13.452;2023-09-19T11:44:32;4.33;;;2.77;;
25331;SDS011;13284;52.748;13.452;2023-09-19T11:46:51;4.33;;;2.40;;
25331;SDS011;13284;52.748;13.452;2023-09-19T11:49:17;5.50;;;2.23;;
25331;SDS011;13284;52.748;13.452;2023-09-19T11:51:48;2.23;;;1.90;;
25331;SDS011;13284;52.748;13.452;2023-09-19T11:54:16;5.47;;;2.27;;
25331;SDS011;13284;52.748;13.452;2023-09-19T11:56:56;4.13;;;2.37;;
25331;SDS011;13284;52.748;13.452;2023-09-19T11:59:26;6.07;;;3.07;;
25331;SDS011;13284;52.748;13.452;2023-09-19T12:02:03;5.33;;;2.37;;
25331;SDS011;13284;52.748;13.452;2023-09-19T12:04:34;3.97;;;2.13;;
25331;SDS011;13284;52.748;13.452;2023-09-19T12:07:12;3.10;;;1.90;;
25331;SDS011;13284;52.748;13.452;2023-09-19T12:09:45;4.10;;;2.20;;
25331;SDS011;13284;52.748;13.452;2023-09-19T12:12:24;4.17;;;2.00;;
25331;SDS011;13284;52.748;13.452;2023-09-19T12:15:00;4.70;;;2.03;;
25331;SDS011;13284;52.748;13.452;2023-09-19T12:17:38;4.03;;;1.87;;
25331;SDS011;13284;52.748;13.452;2023-09-19T12:20:06;2.87;;;1.80;;
25331;SDS011;13284;52.748;13.452;2023-09-19T12:22:42;2.60;;;1.90;;
25331;SDS011;13284;52.748;13.452;2023-09-19T12:25:09;2.50;;;1.80;;
25331;SDS011;13284;52.748;13.452;2023-09-19T12:27:48;2.23;;;1.90;;
25331;SDS011;13284;52.748;13.452;2023-09-19T12:30:18;5.13;;;1.87;;
25331;SDS011;13284;52.748;13.452;2023-09-19T12:32:45;3.93;;;2.30;;
25331;SDS011;13284;52.748;13.452;2023-09-19T12:35:30;4.07;;;1.30;;
25331;SDS011;13284;52.748;13.452;2023-09-19T12:38:00;4.10;;;1.67;;
25331;SDS011;13284;52.748;13.452;2023-09-19T12:40:26;5.57;;;1.23;;
25331;SDS011;13284;52.748;13.452;2023-09-19T12:42:54;4.37;;;1.87;;
25331;SDS011;13284;52.748;13.452;2023-09-19T12:45:20;2.63;;;1.80;;
25331;SDS011;13284;52.748;13.452;2023-09-19T12:51:04;3.13;;;1.57;;
25331;SDS011;13284;52.748;13.452;2023-09-19T12:53:36;2.97;;;1.33;;
25331;SDS011;13284;52.748;13.452;2023-09-19T12:56:07;2.97;;;1.20;;
25331;SDS011;13284;52.748;13.452;2023-09-19T12:58:34;3.30;;;1.63;;
25331;SDS011;13284;52.748;13.452;2023-09-19T13:01:19;2.80;;;1.70;;
25331;SDS011;13284;52.748;13.452;2023-09-19T13:03:45;3.23;;;1.33;;
25331;SDS011;13284;52.748;13.452;2023-09-19T13:06:11;2.17;;;1.30;;
25331;SDS011;13284;52.748;13.452;2023-09-19T13:09:30;2.53;;;1.27;;
25331;SDS011;13284;52.748;13.452;2023-09-19T13:12:03;2.57;;;1.20;;
25331;SDS011;13284;52.748;13.452;2023-09-19T13:14:31;3.53;;;1.20;;
25331;SDS011;13284;52.748;13.452;2023-09-19T13:17:03;3.07;;;1.53;;
25331;SDS011;13284;52.748;13.452;2023-09-19T13:19:43;3.03;;;1.30;;
25331;SDS011;13284;52.748;13.452;2023-09-19T13:22:38;2.97;;;1.23;;
25331;SDS011;13284;52.748;13.452;2023-09-19T13:25:07;3.50;;;1.97;;
25331;SDS011;13284;52.748;13.452;2023-09-19T13:27:38;6.60;;;1.90;;
25331;SDS011;13284;52.748;13.452;2023-09-19T13:30:04;2.50;;;1.50;;
25331;SDS011;13284;52.748;13.452;2023-09-19T13:32:31;1.20;;;0.97;;
25331;SDS011;13284;52.748;13.452;2023-09-19T13:34:58;3.30;;;1.50;;
25331;SDS011;13284;52.748;13.452;2023-09-19T13:37:23;3.43;;;1.27;;
25331;SDS011;13284;52.748;13.452;2023-09-19T13:39:49;2.90;;;1.30;;
25331;SDS011;13284;52.748;13.452;2023-09-19T13:42:14;2.80;;;1.47;;
25331;SDS011;13284;52.748;13.452;2023-09-19T13:44:41;1.17;;;0.93;;
25331;SDS011;13284;52.748;13.452;2023-09-19T13:47:06;4.33;;;1.30;;
25331;SDS011;13284;52.748;13.452;2023-09-19T13:49:35;2.03;;;1.23;;
25331;SDS011;13284;52.748;13.452;2023-09-19T13:52:02;3.53;;;1.80;;
25331;SDS011;13284;52.748;13.452;2023-09-19T13:54:31;2.07;;;1.10;;
25331;SDS011;13284;52.748;13.452;2023-09-19T13:56:56;2.83;;;1.20;;
25331;SDS011;13284;52.748;13.452;2023-09-19T13:59:23;1.80;;;1.07;;
25331;SDS011;13284;52.748;13.452;2023-09-19T14:01:49;2.70;;;1.50;;
25331;SDS011;13284;52.748;13.452;2023-09-19T14:04:15;1.43;;;1.20;;
25331;SDS011;13284;52.748;13.452;2023-09-19T14:06:42;2.30;;;1.20;;
25331;SDS011;13284;52.748;13.452;2023-09-19T14:09:08;3.47;;;1.40;;
25331;SDS011;13284;52.748;13.452;2023-09-19T14:11:35;2.60;;;1.07;;
25331;SDS011;13284;52.748;13.452;2023-09-19T14:14:01;1.97;;;1.20;;
25331;SDS011;13284;52.748;13.452;2023-09-19T14:16:26;2.90;;;1.30;;
25331;SDS011;13284;52.748;13.452;2023-09-19T14:18:55;2.30;;;1.10;;
25331;SDS011;13284;52.748;13.452;2023-09-19T14:21:23;4.13;;;1.80;;
25331;SDS011;13284;52.748;13.452;2023-09-19T14:23:49;2.97;;;1.93;;
25331;SDS011;13284;52.748;13.452;2023-09-19T14:26:14;3.80;;;1.33;;
25331;SDS011;13284;52.748;13.452;2023-09-19T14:28:41;3.40;;;1.47;;
25331;SDS011;13284;52.748;13.452;2023-09-19T14:31:07;1.83;;;1.70;;
25331;SDS011;13284;52.748;13.452;2023-09-19T14:33:34;2.13;;;1.40;;
25331;SDS011;13284;52.748;13.452;2023-09-19T14:36:06;2.20;;;1.33;;
25331;SDS011;13284;52.748;13.452;2023-09-19T14:38:35;2.00;;;1.37;;
25331;SDS011;13284;52.748;13.452;2023-09-19T14:41:01;2.97;;;1.57;;
25331;SDS011;13284;52.748;13.452;2023-09-19T14:43:27;1.87;;;1.57;;
25331;SDS011;13284;52.748;13.452;2023-09-19T14:46:02;4.20;;;1.37;;
25331;SDS011;13284;52.748;13.452;2023-09-19T14:48:28;3.13;;;1.57;;
25331;SDS011;13284;52.748;13.452;2023-09-19T14:50:54;3.80;;;1.20;;
25331;SDS011;13284;52.748;13.452;2023-09-19T14:53:20;1.80;;;1.40;;
25331;SDS011;13284;52.748;13.452;2023-09-19T14:55:46;3.50;;;1.60;;
25331;SDS011;13284;52.748;13.452;2023-09-19T14:58:12;3.50;;;1.20;;
25331;SDS011;13284;52.748;13.452;2023-09-19T15:00:39;2.23;;;1.50;;
25331;SDS011;13284;52.748;13.452;2023-09-19T15:03:04;3.33;;;1.60;;
25331;SDS011;13284;52.748;13.452;2023-09-19T15:05:30;3.03;;;1.53;;
25331;SDS011;13284;52.748;13.452;2023-09-19T15:07:56;1.77;;;1.10;;
25331;SDS011;13284;52.748;13.452;2023-09-19T15:10:22;1.67;;;1.40;;
25331;SDS011;13284;52.748;13.452;2023-09-19T15:12:48;5.23;;;1.60;;
25331;SDS011;13284;52.748;13.452;2023-09-19T15:15:13;3.00;;;1.60;;
25331;SDS011;13284;52.748;13.452;2023-09-19T15:17:39;3.30;;;1.50;;
25331;SDS011;13284;52.748;13.452;2023-09-19T15:20:05;2.17;;;1.97;;
25331;SDS011;13284;52.748;13.452;2023-09-19T15:22:35;4.03;;;1.53;;
25331;SDS011;13284;52.748;13.452;2023-09-19T15:25:01;4.67;;;1.47;;
25331;SDS011;13284;52.748;13.452;2023-09-19T15:27:28;2.87;;;1.50;;
25331;SDS011;13284;52.748;13.452;2023-09-19T15:29:57;3.53;;;1.77;;